Maynooth, Canada
Current Conditions -  °F | °C
As of 9:00 PM on Wednesday 22 Oct 2014 (Local Time) from CYWA Reporting Station
Clear Clear  
Wind Chill: 41°   Ceiling: Unl
Heat Index: 41°   Visibility: 9mi
Dew Point: 34°   Wind: 3mph
Humidity: 76%   Direction: 280°W
Pressure: 30.28"   Gusts: NA
Location:  45.23°N, 77.93°W
Report Text: CYWA 230100Z AUTO 28003KT 210V300 9SM CLR 05/01 A3028 RMKSLP259
Loading
Personal Weather Stations






























Interactive Weather Map
Tropical Storm Tracking
New forecast layout! Learn more

10-Day Weather Forecast

Advertisements
Track Severe Weather on mobile